createdAt,value
2023-03-27T00:10:46.037Z,3.02
2023-03-27T00:21:46.446Z,3.02
2023-03-27T00:32:43.121Z,3.02
2023-03-27T00:43:44.613Z,3.01
2023-03-27T00:54:33.086Z,3.00
2023-03-27T01:05:34.899Z,3.00
2023-03-27T01:16:25.704Z,3.00
2023-03-27T01:27:28.037Z,2.99
2023-03-27T01:38:30.459Z,2.99
2023-03-27T01:49:31.646Z,2.99
2023-03-27T02:00:51.098Z,2.99
2023-03-27T02:11:36.048Z,2.99
2023-03-27T02:22:39.213Z,2.98
2023-03-27T02:33:40.350Z,2.98
2023-03-27T02:44:46.813Z,2.98
2023-03-27T02:55:44.633Z,2.98
2023-03-27T03:06:47.455Z,2.98
2023-03-27T03:17:43.312Z,2.98
2023-03-27T03:29:01.393Z,2.97
2023-03-27T03:39:47.536Z,2.97
2023-03-27T03:50:51.891Z,2.97
2023-03-27T04:01:54.921Z,2.97
2023-03-27T04:12:58.618Z,2.96
2023-03-27T04:24:04.280Z,2.96
2023-03-27T04:35:03.684Z,2.96
2023-03-27T04:46:06.068Z,2.96
2023-03-27T04:57:08.245Z,2.96
2023-03-27T05:08:12.748Z,2.96
2023-03-27T05:19:15.844Z,2.96
2023-03-27T05:30:14.678Z,2.96
2023-03-27T05:41:15.644Z,2.96
2023-03-27T05:52:09.368Z,2.97
2023-03-27T06:03:08.489Z,2.98
2023-03-27T06:14:02.077Z,2.99
2023-03-27T06:25:01.401Z,3.01
2023-03-27T06:35:55.629Z,3.03
2023-03-27T06:46:43.085Z,3.05
2023-03-27T06:57:41.593Z,3.09
2023-03-27T07:08:41.612Z,3.11
2023-03-27T07:19:43.112Z,3.14
2023-03-27T07:30:44.587Z,3.18
2023-03-27T07:41:42.500Z,3.22
2023-03-27T07:52:41.172Z,3.25
2023-03-27T08:03:37.892Z,3.31
2023-03-27T08:14:33.980Z,3.26
2023-03-27T08:25:32.963Z,3.28
2023-03-27T08:36:17.913Z,3.27
2023-03-27T08:47:10.450Z,3.28
2023-03-27T08:58:10.613Z,3.28
2023-03-27T09:09:09.782Z,3.28
2023-03-27T09:20:08.445Z,3.29
2023-03-27T09:30:57.302Z,3.30
2023-03-27T09:41:54.566Z,3.30
2023-03-27T09:52:54.822Z,3.29
2023-03-27T10:03:53.299Z,3.30
2023-03-27T10:14:53.099Z,3.29
2023-03-27T10:25:50.982Z,3.32
2023-03-27T10:36:49.994Z,3.32
2023-03-27T10:47:50.611Z,3.31
2023-03-27T10:58:49.655Z,3.31
2023-03-27T11:09:49.413Z,3.32
2023-03-27T11:20:48.924Z,3.30
2023-03-27T11:31:49.744Z,3.35
2023-03-27T11:42:49.480Z,3.36
2023-03-27T11:53:49.138Z,3.37
2023-03-27T12:04:25.641Z,3.38
2023-03-27T12:15:17.618Z,3.32
2023-03-27T12:26:17.377Z,3.32
2023-03-27T12:37:16.416Z,3.31
2023-03-27T12:48:13.969Z,3.31
2023-03-27T12:59:13.047Z,3.36
2023-03-27T13:10:12.252Z,3.42
2023-03-27T13:21:05.445Z,3.42
2023-03-27T13:32:00.584Z,3.34
2023-03-27T13:42:57.193Z,3.38
2023-03-27T13:53:46.491Z,3.39
2023-03-27T14:04:44.137Z,3.33
2023-03-27T14:15:40.285Z,3.33
2023-03-27T14:26:37.607Z,3.33
2023-03-27T14:37:40.002Z,3.40
2023-03-27T14:48:38.260Z,3.40
2023-03-27T14:59:36.960Z,3.34
2023-03-27T15:10:33.187Z,3.38
2023-03-27T15:21:29.726Z,3.38
2023-03-27T15:32:26.763Z,3.33
2023-03-27T15:43:20.438Z,3.31
2023-03-27T15:54:13.031Z,3.30
2023-03-27T16:05:11.780Z,3.31
2023-03-27T16:16:08.627Z,3.31
2023-03-27T16:27:07.278Z,3.31
2023-03-27T16:38:06.393Z,3.32
2023-03-27T16:49:05.581Z,3.33
2023-03-27T17:00:04.936Z,3.30
2023-03-27T17:11:05.201Z,3.27
2023-03-27T17:21:59.158Z,3.25
2023-03-27T17:32:56.982Z,3.23
2023-03-27T17:43:57.108Z,3.22
2023-03-27T17:54:56.048Z,3.21
2023-03-27T18:05:52.269Z,3.19
2023-03-27T18:16:50.784Z,3.18
2023-03-27T18:27:45.001Z,3.18
2023-03-27T18:38:46.007Z,3.17
2023-03-27T18:49:46.690Z,3.16
2023-03-27T19:00:46.399Z,3.15
2023-03-27T19:11:42.656Z,3.14
2023-03-27T19:22:42.319Z,3.13
2023-03-27T19:33:27.218Z,3.10
2023-03-27T19:44:13.876Z,3.09
2023-03-27T19:55:04.983Z,3.08
2023-03-27T20:06:07.425Z,3.08
2023-03-27T20:17:02.722Z,3.07
2023-03-27T20:27:57.038Z,3.07
2023-03-27T20:38:52.137Z,3.07
2023-03-27T20:49:50.275Z,3.06
2023-03-27T21:00:50.526Z,3.06
2023-03-27T21:11:50.228Z,3.05
2023-03-27T21:22:52.872Z,3.05
2023-03-27T21:33:49.721Z,3.04
2023-03-27T21:44:56.565Z,3.04
2023-03-27T21:55:51.471Z,3.04
2023-03-27T22:06:47.547Z,3.03
2023-03-27T22:17:47.818Z,3.03
2023-03-27T22:28:50.856Z,3.02
2023-03-27T22:39:52.359Z,3.02
2023-03-27T22:50:53.923Z,3.02
2023-03-27T23:01:55.879Z,3.02
2023-03-27T23:12:55.855Z,3.01
2023-03-27T23:23:58.901Z,3.00
2023-03-27T23:35:01.790Z,3.00
2023-03-27T23:45:59.428Z,2.99
2023-03-27T23:56:58.044Z,2.99
